Terminal Aerodrome Forecast
Issued by NWS

Home | Current Version | Previous Version | Text Only | Print | Product List | Glossary On
Versions: 1 2 3 4 5 6 7 8 9 10 11 12
514
FTUS45 KTFX 060534
TAFCTB
TAF
KCTB 060534Z 0606/0706 24035G45KT P6SM SCT100 BKN150
     FM061600 26038G60KT P6SM BKN150
     FM070000 27028G38KT P6SM SCT200=

USA.gov is the U.S. government's official web portal to all federal, state and local government web resources and services.